zondag 31 mei 2020 | Home | Bestenlijsten | Bestenlijsten NL | Calculators | Nieuws | Records | Uitslagen | VZA Ranglijsten | Weer |
 
Recent nieuws meer nieuws
28-05: Is snelheid een relatief begrip? Maar dan op herhaling
19-05: Snelheid een relatief begrip?
06-05: Mag huidig niveau hardlopen zomaar vergeleken worden met dat van de jaren 70?
28-04: Ook na 1 juni Run your own race
24-04: Zeeuws record 15 km van John Vermeule meest kansrijk om ooit te worden verbroken
21-04: Kunnen we na 1 juni stoppen met Run your own race?
 
Zoek tenminste met 3 tekens van wedstrijd, datum, plaats of atleet

Scheldesportloop

Terneuzen, zaterdag 4 maart 2017 - Organisatie: Scheldesport
12.8 km
PltsNaam
Tijdkm/umin/kmm/secgap
1  Sander PostTerneuzen44.06minM35   17.415  3:274.84-
2  Mark VerhageZaamslag47.04minMse   16.317  3:414.53+2:58
3  Jan RiemensWatervliet47.25minMse   16.197  3:424.50+3:19
4  Martijn KoxWestdorpe47.37minM35   16.129  3:434.48+3:31
5  Pieter PladdetTerneuzen48.21minM45   15.884  3:474.41+4:15
6  Alexander VanwalleghemVeldegem48.40minM35   15.781  3:484.38+4:34
7  Gert Jan BoeykensStekene49.25minMse   15.541  3:524.32+5:19
8  Henk De BrauwerWaarschoot50.00minM55   15.360  3:544.27+5:54
9  Carolien van de KreekeSerooskerke50.31minV40   15.203  3:574.22+6:25
10  Leo BrackeAxel51.13minM50   14.995  4:004.17+7:07
11  Dennis FlorussenTerneuzen52.11minM40   14.717  4:054.09+8:05
12  Peter RomanMelle52.15minM45   14.699  4:054.08+8:09
13  Erik BollemanAxel53.00minM45   14.491  4:084.03+8:54
14  Joop BrooijmansHengstdijk53.46minMse   14.284  4:123.97+9:40
15  Luc DhontZaffelare55.55minM55   13.735  4:223.82+11:49
16  Herman KuijerTerneuzen56.00minM55   13.714  4:233.81+11:54
17  Bert Van AcoleyenZelzate56.57minM35   13.486  4:273.75+12:51
18  Leon van BavinchovenTerneuzen57.17minM45   13.407  4:293.72+13:11
19  Gilles FaasTerneuzen58.05minM45   13.222  4:323.67+13:59
20  Jan KerstenKwintsheul58.13minM40   13.192  4:333.66+14:07
21  Rudy MichielsOosterzele58.36minM45   13.106  4:353.64+14:30
22  Jochem de DijckerAxel58.50minM35   13.054  4:363.63+14:44
23  Cathy PoppeTerneuzen59.15minV40   12.962  4:383.60+15:09
24  John VetteTerneuzen59.20minM50   12.944  4:383.60+15:14
25  Marc WelvaertOosteeklo59.31minM50   12.904  4:393.58+15:25
26  Fabian de BooijTerneuzen1.00.38minMse   12.666  4:443.52+16:32
27  Martine BouteWaarschoot1.00.50minV40   12.625  4:453.51+16:44
28  Wim LagaeTemse1.01.27minM50   12.498  4:483.47+17:21
29  Dirk BreynaertSint-Niklaas1.02.27minM60   12.298  4:533.42+18:21
30  Anneke RombautTemse1.03.13minV55   12.149  4:563.37+19:07
31  P. LepoudreIchtegem1.03.24minM60   12.114  4:573.36+19:18
32  Frans VerwilligenHulst1.05.55minM60   11.651  5:093.24+21:49
33  Hanno de HoonTerneuzen1.05.56minM60   11.648  5:093.24+21:50
34  Philippe Van GeertruyEkeren1.06.41minM50   11.517  5:133.20+22:35
35  Els ZweistraTerneuzen1.07.34minV55   11.367  5:173.16+23:28
36  Jan De MitsErtvelde1.07.36minM55   11.361  5:173.16+23:30
37  Ko de KoeyerZaamslag1.09.04minM70   11.120  5:243.09+24:58
38  Mia ClijmansVosselaar1.10.44minV50   10.858  5:323.02+26:38
39  Hubert RoelsKloosterzande1.11.07minM65   10.799  5:333.00+27:01
40  Albert John VervorstRoosendaal1.12.24minM35   10.608  5:392.95+28:18
41  Antoine van den BroekTerneuzen1.13.42minM35   10.421  5:452.89+29:36
42  Patrick LambregtsTerneuzen1.13.56minM50   10.388  5:472.89+29:50
43  Romain BolssensKieldrecht1.14.24minM60   10.323  5:492.87+30:18
44  Johan KijfdemangTerneuzen1.15.24minM35   10.186  5:532.83+31:18
45  Philip De VroeSleidinge1.15.43minM50   10.143  5:552.82+31:37
46  Dimitri LouwiesseTerneuzen1.18.05minM40   9.836  6:062.73+33:59
47  Leo de FeijterAxel1.19.44minM45   9.632  6:142.68+35:38
Mannen: 41 (87.23%) => M35=8 - M40=3 - M45=7 - M50=7 - M55=4 - M60=5 - M65=1 - M70=1 - Mse=5
Vrouwen: 6 (12.77%) => V40=3 - V50=1 - V55=2

Overzicht Top3, winnares en aantal deelnemers van aanwezige edities

JaarWinnaarTijd2eTijd 3eTijdWinnaresTijd#

12.8 km

2019Mark Verhage45:42Chris de Smit47:59Sander d'Hont48:31Eliny Diakakis55:5447
2017Sander Post44:06Mark Verhage47:04Jan Riemens47:25Carolien van de Kreeke50:3147
2016Jente Samson44:54Stijn Vermeersch46:25Davy Vanderroost46:48Cathy Poppe54:4741
2015Sander Post45:24Jody Schoorens45:32Erik Goossen46:29Fiona Reijers1:01:1857
2014Henk De Brauwer47:26Erwin van den Broeke47:59Sander Post48:28Katrien Lievens54:2963
6.6 km
PltsNaam
Tijdkm/umin/kmm/secgap
1  Endy SlockAxel24.43minM40   16.022  3:454.45-
2  Evert KuijkTerneuzen27.03minM50   14.640  4:064.07+2:20
3  Robert LafertinTerneuzen27.19minM35   14.497  4:084.03+2:36
4  Wim BakkerTerneuzen30.33minM65   12.962  4:383.60+5:50
5  Marc GorisVosselaar31.21minM50   12.632  4:453.51+6:38
6  Josa van der VlietTerneuzen31.37minV50   12.525  4:473.48+6:54
7  Wanda ZegersTerneuzen34.34minV45   11.456  5:143.18+9:51
8  Emanuela BrackeAxel34.52minV45   11.358  5:173.15+10:09
9  Imelda de PoorterTerneuzen35.24minV50   11.186  5:223.11+10:41
10  Andrea VermoteEernegem35.42minV55   11.092  5:253.08+10:59
11  Arsene van LaekenAssenede36.38minM60   10.810  5:333.00+11:55
12  Francois HamelinkZaamslag36.47minM35   10.766  5:342.99+12:04
13  Yves RooversWommelgem37.07minM45   10.669  5:372.96+12:24
14  Marian van VorenTerneuzen37.43minV60   10.499  5:432.92+13:00
15  Anne Marie TemmermanKapelle-Biezelinge37.46minV35   10.485  5:432.91+13:03
16  Elsbeth DeijKapelle-Biezelinge37.47minVse   10.481  5:432.91+13:04
17  Mirelle van den BerghTerneuzen38.30minV40   10.286  5:502.86+13:47
18  Rudi Van WaesbergheSint-Pauwels38.34minM60   10.268  5:512.85+13:51
19  Bram DeesPhilippine38.35minM65   10.263  5:512.85+13:52
20  Kimberley Van WaesbergheSint-Pauwels39.22minVse   10.059  5:582.79+14:39
21  Tommy DevosWaasdonk39.24minM35   10.051  5:582.79+14:41
22  Bennie BouterseTerneuzen39.27minM50   10.038  5:592.79+14:44
23  Els van KerckhoveSint-Kruis-Winkel41.30minV40   9.542  6:172.65+16:47
24  Veerle Van RentergemSint-Kruis-Winkel41.32minV45   9.535  6:182.65+16:49
25  Patricia PostTerneuzen41.55minVse   9.447  6:212.62+17:12
26  Maria Van BelleSleidinge42.14minV70   9.376  6:242.60+17:31
27  Rudy Vande VeldeWachtebeke42.16minM50   9.369  6:242.60+17:33
28  Aime SamsonSint-Pauwels42.41minM65   9.278  6:282.58+17:58
29  William VerdonckBeveren-Waas43.37minM70   9.079  6:372.52+18:54
30  Marie Jeanne WeemaesSint-Gillis-Waas47.12minV70   8.390  7:092.33+22:29
31  Greta de VylderSint-Gillis-Waas47.13minV70   8.387  7:092.33+22:30
Mannen: 15 (48.39%) => M35=3 - M40=1 - M45=1 - M50=4 - M60=2 - M65=3 - M70=1
Vrouwen: 16 (51.61%) => V35=1 - V40=2 - V45=3 - V50=2 - V55=1 - V60=1 - V70=3 - Vse=3

Snelheid en tempo zijn berekend op de vermelde afstand. Bij een onjuiste afstand wijken deze uiteraard af!

Fouten melden via info@atletiekzeeland.nl Categorie fout? Mail dan geboortedatum. (geldt alleen voor Zeeuwen)

De server had 0.16 seconden nodig om deze lijst met 78 prestaties samen te stellen.

Terug naar boven


 
Atletiek Zeeland © 2020